createdAt,value
2023-03-17T00:02:10.672Z,7.43
2023-03-17T00:04:38.400Z,7.68
2023-03-17T00:07:05.720Z,7.65
2023-03-17T00:09:32.112Z,7.63
2023-03-17T00:11:58.507Z,7.42
2023-03-17T00:14:25.009Z,7.52
2023-03-17T00:16:52.782Z,7.57
2023-03-17T00:19:24.042Z,7.49
2023-03-17T00:21:51.729Z,7.39
2023-03-17T00:24:18.126Z,7.25
2023-03-17T00:26:44.510Z,7.48
2023-03-17T00:29:10.956Z,7.30
2023-03-17T00:31:38.386Z,7.63
2023-03-17T00:34:04.952Z,7.48
2023-03-17T00:36:33.488Z,7.39
2023-03-17T00:39:01.393Z,7.44
2023-03-17T00:41:27.857Z,7.27
2023-03-17T00:43:54.220Z,7.34
2023-03-17T00:46:24.301Z,7.43
2023-03-17T00:48:50.933Z,7.37
2023-03-17T00:51:17.287Z,7.10
2023-03-17T00:53:44.093Z,7.11
2023-03-17T00:56:15.011Z,7.30
2023-03-17T00:58:41.713Z,7.15
2023-03-17T01:01:08.219Z,7.38
2023-03-17T01:03:34.876Z,7.17
2023-03-17T01:06:03.004Z,7.09
2023-03-17T01:08:30.201Z,7.02
2023-03-17T01:10:57.026Z,7.33
2023-03-17T01:13:25.165Z,7.01
2023-03-17T01:15:52.408Z,7.09
2023-03-17T01:18:21.692Z,7.25
2023-03-17T01:20:49.183Z,7.46
2023-03-17T01:23:15.914Z,7.07
2023-03-17T01:25:43.523Z,7.39
2023-03-17T01:28:12.878Z,7.03
2023-03-17T01:30:41.049Z,7.43
2023-03-17T01:33:09.053Z,7.68
2023-03-17T01:35:37.304Z,7.66
2023-03-17T01:38:04.628Z,7.46
2023-03-17T01:40:33.251Z,7.45
2023-03-17T01:43:03.795Z,7.57
2023-03-17T01:46:19.078Z,7.55
2023-03-17T01:48:54.632Z,7.19
2023-03-17T01:51:25.114Z,7.30
2023-03-17T01:53:52.460Z,7.46
2023-03-17T01:56:19.435Z,7.00
2023-03-17T01:58:49.502Z,7.46
2023-03-17T02:01:15.943Z,7.23
2023-03-17T02:03:42.631Z,7.43
2023-03-17T02:06:11.254Z,7.31
2023-03-17T02:08:37.633Z,7.15
2023-03-17T02:11:04.714Z,7.26
2023-03-17T02:13:31.509Z,7.35
2023-03-17T02:15:57.869Z,7.33
2023-03-17T02:18:24.275Z,7.15
2023-03-17T02:21:23.468Z,7.85
2023-03-17T02:23:51.288Z,7.48
2023-03-17T02:26:19.640Z,7.83
2023-03-17T02:28:46.219Z,7.51
2023-03-17T02:31:12.675Z,7.35
2023-03-17T02:33:39.088Z,7.46
2023-03-17T02:36:06.125Z,7.35
2023-03-17T02:38:32.537Z,7.42
2023-03-17T02:41:00.255Z,7.18
2023-03-17T02:43:26.663Z,7.34
2023-03-17T02:45:53.075Z,7.37
2023-03-17T02:48:19.523Z,7.47
2023-03-17T02:50:46.049Z,7.33
2023-03-17T02:53:12.385Z,7.33
2023-03-17T02:55:38.735Z,7.20
2023-03-17T02:58:06.514Z,7.14
2023-03-17T03:00:33.027Z,7.14
2023-03-17T03:02:59.504Z,7.24
2023-03-17T03:05:26.413Z,7.25
2023-03-17T03:07:52.823Z,7.53
2023-03-17T03:10:19.317Z,7.31
2023-03-17T03:12:45.785Z,7.27
2023-03-17T03:15:13.719Z,7.34
2023-03-17T03:17:40.103Z,7.12
2023-03-17T03:20:07.199Z,7.12
2023-03-17T03:22:33.569Z,7.59
2023-03-17T03:24:59.942Z,7.61
2023-03-17T03:27:26.389Z,7.67
2023-03-17T03:29:52.757Z,7.50
2023-03-17T03:32:20.461Z,7.45
2023-03-17T03:34:46.853Z,7.56
2023-03-17T03:37:13.239Z,7.36
2023-03-17T03:39:39.607Z,7.37
2023-03-17T03:42:06.359Z,7.42
2023-03-17T03:44:32.936Z,7.25
2023-03-17T03:46:59.302Z,7.10
2023-03-17T03:49:27.023Z,7.05
2023-03-17T03:51:53.445Z,7.03
2023-03-17T03:54:19.933Z,6.90
2023-03-17T03:56:46.357Z,7.04
2023-03-17T03:59:12.716Z,7.08
2023-03-17T04:01:39.088Z,6.90
2023-03-17T04:04:05.484Z,7.19
2023-03-17T04:06:33.182Z,7.28
2023-03-17T04:08:59.548Z,7.29
2023-03-17T04:11:25.969Z,7.05
2023-03-17T04:13:52.337Z,7.07
2023-03-17T04:16:18.792Z,6.81
2023-03-17T04:18:45.240Z,6.77
2023-03-17T04:21:11.619Z,7.04
2023-03-17T04:23:39.296Z,7.15
2023-03-17T04:26:05.713Z,7.13
2023-03-17T04:28:32.046Z,6.88
2023-03-17T04:30:58.402Z,6.93
2023-03-17T04:33:24.856Z,7.22
2023-03-17T04:35:51.337Z,7.22
2023-03-17T04:38:17.727Z,7.14
2023-03-17T04:40:45.797Z,7.10
2023-03-17T04:43:12.194Z,6.82
2023-03-17T04:45:38.749Z,6.96
2023-03-17T04:48:06.185Z,6.81
2023-03-17T04:50:33.124Z,6.73
2023-03-17T04:52:59.775Z,6.96
2023-03-17T04:55:26.293Z,7.16
2023-03-17T04:57:54.065Z,6.94
2023-03-17T05:00:21.070Z,6.98
2023-03-17T05:02:47.610Z,6.80
2023-03-17T05:05:13.969Z,6.72
2023-03-17T05:07:40.328Z,7.03
2023-03-17T05:10:07.745Z,7.00
2023-03-17T05:12:34.110Z,6.88
2023-03-17T05:15:01.829Z,7.08
2023-03-17T05:17:28.196Z,6.96
2023-03-17T05:19:54.555Z,6.81
2023-03-17T05:22:20.922Z,6.92
2023-03-17T05:24:47.369Z,7.07
2023-03-17T05:27:13.851Z,6.76
2023-03-17T05:29:40.262Z,6.87
2023-03-17T05:32:08.039Z,6.98
2023-03-17T05:34:34.413Z,6.77
2023-03-17T05:37:00.776Z,6.95
2023-03-17T05:39:27.164Z,7.12
2023-03-17T05:41:53.512Z,7.59
2023-03-17T05:44:19.861Z,7.37
2023-03-17T05:46:46.249Z,6.93
2023-03-17T05:49:13.998Z,7.31
2023-03-17T05:51:40.334Z,7.32
2023-03-17T05:54:06.725Z,7.30
2023-03-17T05:56:33.089Z,7.14
2023-03-17T05:58:59.848Z,6.93
2023-03-17T06:01:26.407Z,7.11
2023-03-17T06:03:53.013Z,7.10
2023-03-17T06:06:20.737Z,7.14
2023-03-17T06:08:47.137Z,7.23
2023-03-17T06:11:13.511Z,7.07
2023-03-17T06:13:39.858Z,7.38
2023-03-17T06:16:07.170Z,7.22
2023-03-17T06:18:33.592Z,7.04
2023-03-17T06:20:59.943Z,7.14
2023-03-17T06:23:27.630Z,7.09
2023-03-17T06:25:53.987Z,7.07
2023-03-17T06:28:20.358Z,7.22
2023-03-17T06:30:46.789Z,7.15
2023-03-17T06:33:13.326Z,7.35
2023-03-17T06:35:39.960Z,7.66
2023-03-17T06:38:06.960Z,7.85
2023-03-17T06:40:34.695Z,7.86
2023-03-17T06:43:01.204Z,7.33
2023-03-17T06:45:27.827Z,7.53
2023-03-17T06:47:54.619Z,7.47
2023-03-17T06:50:21.190Z,7.66
2023-03-17T06:52:47.715Z,7.48
2023-03-17T06:55:14.174Z,7.50
2023-03-17T06:57:41.980Z,7.88
2023-03-17T07:00:09.935Z,7.89
2023-03-17T07:02:36.333Z,7.92
2023-03-17T07:05:02.846Z,8.03
2023-03-17T07:07:29.301Z,7.97
2023-03-17T07:09:55.661Z,7.98
2023-03-17T07:12:22.126Z,8.07
2023-03-17T07:14:49.888Z,8.47
2023-03-17T07:17:16.267Z,8.31
2023-03-17T07:19:42.681Z,8.64
2023-03-17T07:22:11.212Z,8.48
2023-03-17T07:24:37.593Z,8.55
2023-03-17T07:27:04.008Z,8.72
2023-03-17T07:29:30.593Z,8.64
2023-03-17T07:31:58.301Z,8.87
2023-03-17T07:34:24.762Z,9.04
2023-03-17T07:36:51.198Z,9.20
2023-03-17T07:39:17.589Z,9.05
2023-03-17T07:41:44.091Z,9.58
2023-03-17T07:44:10.914Z,9.56
2023-03-17T07:46:37.779Z,9.60
2023-03-17T07:49:05.616Z,9.36
2023-03-17T07:51:32.131Z,10.02
2023-03-17T07:53:58.517Z,9.99
2023-03-17T07:56:24.865Z,10.29
2023-03-17T07:58:51.459Z,10.13
2023-03-17T08:01:17.881Z,10.26
2023-03-17T08:03:44.354Z,10.47
2023-03-17T08:06:12.068Z,10.40
2023-03-17T08:08:38.417Z,10.62
2023-03-17T08:11:05.402Z,11.01
2023-03-17T08:13:32.265Z,10.56
2023-03-17T08:15:58.888Z,10.79
2023-03-17T08:18:25.283Z,10.48
2023-03-17T08:20:51.797Z,11.02
2023-03-17T08:23:20.450Z,10.55
2023-03-17T08:25:47.293Z,10.43
2023-03-17T08:28:14.278Z,11.26
2023-03-17T08:30:41.275Z,10.79
2023-03-17T08:33:08.154Z,11.14
2023-03-17T08:35:35.013Z,11.18
2023-03-17T08:38:01.696Z,11.28
2023-03-17T08:40:30.113Z,11.30
2023-03-17T08:42:56.686Z,11.49
2023-03-17T08:45:23.575Z,11.44
2023-03-17T08:47:50.014Z,11.12
2023-03-17T08:50:19.485Z,11.81
2023-03-17T08:52:46.475Z,12.05
2023-03-17T08:55:14.069Z,11.37
2023-03-17T08:57:42.107Z,11.63
2023-03-17T09:00:10.658Z,11.11
2023-03-17T09:02:37.176Z,11.13
2023-03-17T09:05:03.941Z,11.30
2023-03-17T09:07:30.385Z,12.15
2023-03-17T09:09:56.775Z,11.35
2023-03-17T09:12:23.152Z,11.29
2023-03-17T09:14:50.917Z,11.42
2023-03-17T09:17:17.309Z,11.34
2023-03-17T09:19:43.841Z,11.49
2023-03-17T09:22:12.514Z,11.81
2023-03-17T09:24:38.857Z,11.81
2023-03-17T09:27:05.662Z,11.85
2023-03-17T09:29:32.005Z,12.06
2023-03-17T09:32:01.161Z,11.81
2023-03-17T09:34:27.896Z,11.87
2023-03-17T09:36:55.980Z,12.79
2023-03-17T09:39:22.888Z,12.67
2023-03-17T09:42:12.149Z,12.42
2023-03-17T09:44:56.316Z,13.18
2023-03-17T09:47:48.579Z,13.03
2023-03-17T09:50:19.004Z,12.76
2023-03-17T09:52:45.538Z,13.29
2023-03-17T09:55:19.963Z,12.62
2023-03-17T09:57:47.456Z,13.11
2023-03-17T10:00:16.853Z,13.18
2023-03-17T10:02:45.556Z,13.68
2023-03-17T10:05:18.920Z,13.05
2023-03-17T10:07:53.009Z,13.52
2023-03-17T10:10:25.639Z,13.94
2023-03-17T10:13:02.630Z,13.66
2023-03-17T10:15:34.781Z,13.35
2023-03-17T10:18:08.480Z,13.47
2023-03-17T10:20:38.097Z,13.68
2023-03-17T10:23:09.940Z,13.45
2023-03-17T10:25:36.694Z,13.76
2023-03-17T10:28:09.027Z,13.86
2023-03-17T10:30:35.644Z,14.23
2023-03-17T10:33:05.122Z,14.42
2023-03-17T10:35:31.956Z,14.23
2023-03-17T10:38:13.499Z,13.59
2023-03-17T10:40:40.884Z,13.81
2023-03-17T10:43:13.971Z,14.12
2023-03-17T10:45:54.129Z,13.89
2023-03-17T10:48:21.843Z,15.01
2023-03-17T10:50:49.578Z,15.36
2023-03-17T10:53:20.681Z,15.10
2023-03-17T10:55:49.752Z,14.43
2023-03-17T10:58:18.345Z,14.97
2023-03-17T11:00:55.584Z,14.58
2023-03-17T11:03:25.795Z,15.01
2023-03-17T11:05:56.818Z,14.87
2023-03-17T11:08:23.670Z,14.91
2023-03-17T11:10:55.098Z,15.39
2023-03-17T11:13:21.563Z,15.71
2023-03-17T11:15:52.908Z,14.70
2023-03-17T11:18:23.303Z,14.72
2023-03-17T11:20:56.691Z,14.33
2023-03-17T11:23:37.871Z,14.90
2023-03-17T11:26:16.873Z,14.86
2023-03-17T11:28:50.386Z,15.08
2023-03-17T11:31:22.605Z,14.98
2023-03-17T11:33:57.859Z,15.34
2023-03-17T11:36:42.242Z,15.60
2023-03-17T11:39:12.587Z,15.77
2023-03-17T11:41:49.453Z,15.27
2023-03-17T11:44:43.067Z,14.91
2023-03-17T11:47:22.336Z,15.12
2023-03-17T11:49:54.032Z,15.30
2023-03-17T11:52:28.063Z,15.65
2023-03-17T11:55:04.630Z,16.01
2023-03-17T11:57:35.003Z,16.32
2023-03-17T12:00:09.068Z,16.02
2023-03-17T12:02:40.626Z,16.17
2023-03-17T12:05:11.140Z,16.18
2023-03-17T12:07:43.135Z,16.02
2023-03-17T12:10:19.190Z,15.47
2023-03-17T12:12:49.841Z,15.72
2023-03-17T12:15:20.832Z,15.47
2023-03-17T12:17:54.054Z,15.92
2023-03-17T12:20:29.952Z,16.00
2023-03-17T12:23:02.502Z,16.43
2023-03-17T12:25:32.291Z,16.50
2023-03-17T12:28:03.055Z,16.26
2023-03-17T12:30:33.614Z,16.60
2023-03-17T12:33:15.611Z,16.97
2023-03-17T12:35:42.130Z,16.07
2023-03-17T12:38:13.521Z,16.09
2023-03-17T12:40:57.730Z,16.29
2023-03-17T12:43:36.635Z,16.55
2023-03-17T12:46:26.949Z,16.13
2023-03-17T12:49:14.741Z,15.87
2023-03-17T12:51:57.745Z,16.64
2023-03-17T12:54:28.793Z,16.05
2023-03-17T12:57:02.039Z,16.48
2023-03-17T12:59:28.585Z,16.68
2023-03-17T13:01:56.442Z,16.33
2023-03-17T13:04:27.138Z,17.17
2023-03-17T13:06:59.782Z,17.27
2023-03-17T13:09:33.869Z,16.69
2023-03-17T13:12:02.174Z,16.91
2023-03-17T13:14:40.691Z,16.90
2023-03-17T13:17:31.160Z,16.81
2023-03-17T13:20:11.315Z,16.84
2023-03-17T13:22:39.366Z,16.89
2023-03-17T13:25:25.916Z,16.86
2023-03-17T13:27:52.372Z,16.49
2023-03-17T13:30:53.886Z,17.11
2023-03-17T13:33:21.489Z,17.10
2023-03-17T13:36:03.018Z,17.01
2023-03-17T13:39:15.133Z,16.71
2023-03-17T13:41:51.806Z,17.11
2023-03-17T13:44:46.145Z,16.99
2023-03-17T13:47:25.768Z,16.80
2023-03-17T13:49:54.829Z,17.07
2023-03-17T13:52:27.555Z,17.58
2023-03-17T13:55:01.501Z,17.08
2023-03-17T13:57:30.293Z,17.18
2023-03-17T14:00:03.290Z,17.05
2023-03-17T14:02:32.748Z,17.92
2023-03-17T14:05:00.799Z,17.57
2023-03-17T14:07:31.091Z,17.50
2023-03-17T14:09:59.372Z,17.25
2023-03-17T14:12:33.003Z,17.12
2023-03-17T14:15:02.463Z,17.11
2023-03-17T14:17:32.853Z,17.18
2023-03-17T14:20:01.154Z,17.20
2023-03-17T14:22:28.129Z,17.05
2023-03-17T14:24:55.771Z,17.16
2023-03-17T14:27:24.108Z,17.31
2023-03-17T14:29:51.990Z,17.19
2023-03-17T14:32:20.431Z,17.96
2023-03-17T14:34:48.419Z,17.55
2023-03-17T14:37:15.819Z,17.19
2023-03-17T14:39:48.322Z,17.13
2023-03-17T14:42:18.142Z,17.05
2023-03-17T14:44:44.522Z,17.25
2023-03-17T14:47:19.307Z,17.08
2023-03-17T14:49:46.338Z,17.11
2023-03-17T14:52:19.992Z,17.28
2023-03-17T14:54:49.151Z,17.09
2023-03-17T14:57:16.141Z,16.88
2023-03-17T14:59:44.134Z,16.82
2023-03-17T15:02:31.696Z,16.78
2023-03-17T15:05:01.442Z,17.16
2023-03-17T15:07:31.773Z,17.56
2023-03-17T15:09:59.027Z,17.28
2023-03-17T15:12:26.400Z,16.98
2023-03-17T15:14:56.170Z,17.09
2023-03-17T15:17:28.552Z,16.81
2023-03-17T15:19:57.335Z,16.78
2023-03-17T15:22:26.434Z,16.49
2023-03-17T15:24:59.554Z,16.59
2023-03-17T15:27:26.207Z,16.33
2023-03-17T15:29:52.581Z,16.65
2023-03-17T15:32:22.018Z,16.90
2023-03-17T15:34:51.345Z,16.67
2023-03-17T15:37:20.058Z,15.95
2023-03-17T15:39:47.270Z,16.52
2023-03-17T15:42:13.826Z,16.36
2023-03-17T15:44:40.237Z,16.25
2023-03-17T15:47:06.776Z,16.40
2023-03-17T15:49:33.189Z,16.73
2023-03-17T15:52:00.881Z,16.45
2023-03-17T15:54:27.254Z,16.19
2023-03-17T15:56:53.658Z,16.01
2023-03-17T15:59:20.018Z,16.04
2023-03-17T16:01:46.501Z,16.19
2023-03-17T16:04:13.023Z,16.11
2023-03-17T16:06:39.458Z,16.08
2023-03-17T16:09:14.741Z,16.42
2023-03-17T16:11:41.112Z,16.15
2023-03-17T16:14:07.604Z,15.95
2023-03-17T16:16:37.493Z,15.97
2023-03-17T16:19:05.594Z,15.96
2023-03-17T16:21:32.161Z,16.35
2023-03-17T16:23:58.657Z,16.07
2023-03-17T16:26:26.408Z,15.93
2023-03-17T16:28:52.808Z,15.86
2023-03-17T16:31:25.481Z,15.94
2023-03-17T16:33:54.822Z,16.22
2023-03-17T16:36:23.133Z,15.62
2023-03-17T16:38:50.617Z,15.78
2023-03-17T16:41:19.852Z,16.15
2023-03-17T16:43:50.617Z,15.50
2023-03-17T16:46:19.138Z,15.65
2023-03-17T16:48:45.568Z,15.64
2023-03-17T16:51:11.970Z,15.62
2023-03-17T16:53:38.323Z,15.72
2023-03-17T16:56:09.671Z,16.26
2023-03-17T16:58:36.107Z,15.89
2023-03-17T17:01:10.999Z,16.01
2023-03-17T17:03:37.622Z,16.09
2023-03-17T17:06:04.639Z,16.12
2023-03-17T17:08:31.139Z,15.65
2023-03-17T17:10:57.561Z,15.89
2023-03-17T17:13:23.936Z,15.80
2023-03-17T17:15:50.384Z,15.75
2023-03-17T17:18:20.287Z,15.54
2023-03-17T17:20:46.659Z,15.61
2023-03-17T17:23:15.339Z,15.75
2023-03-17T17:25:42.566Z,15.29
2023-03-17T17:28:09.889Z,15.38
2023-03-17T17:30:36.413Z,15.25
2023-03-17T17:33:04.202Z,15.42
2023-03-17T17:35:33.149Z,15.17
2023-03-17T17:38:00.428Z,14.98
2023-03-17T17:40:27.196Z,15.24
2023-03-17T17:42:54.821Z,15.06
2023-03-17T17:45:22.252Z,14.91
2023-03-17T17:47:49.077Z,15.00
2023-03-17T17:50:18.996Z,14.96
2023-03-17T17:52:47.860Z,14.87
2023-03-17T17:55:14.478Z,14.93
2023-03-17T17:57:40.881Z,14.90
2023-03-17T18:00:08.876Z,14.68
2023-03-17T18:02:35.433Z,14.69
2023-03-17T18:05:02.049Z,15.12
2023-03-17T18:07:28.679Z,15.21
2023-03-17T18:09:56.378Z,15.22
2023-03-17T18:12:22.738Z,15.04
2023-03-17T18:14:49.164Z,14.87
2023-03-17T18:17:15.531Z,15.16
2023-03-17T18:19:41.900Z,15.05
2023-03-17T18:22:08.309Z,15.08
2023-03-17T18:24:34.702Z,15.08
2023-03-17T18:27:02.403Z,15.07
2023-03-17T18:29:28.771Z,14.88
2023-03-17T18:31:55.258Z,15.08
2023-03-17T18:34:23.951Z,15.10
2023-03-17T18:36:51.390Z,14.90
2023-03-17T18:39:17.886Z,15.36
2023-03-17T18:41:44.578Z,15.42
2023-03-17T18:44:12.257Z,14.85
2023-03-17T18:46:39.044Z,14.81
2023-03-17T18:49:05.950Z,15.27
2023-03-17T18:51:32.871Z,15.34
2023-03-17T18:53:59.361Z,15.36
2023-03-17T18:56:25.902Z,15.27
2023-03-17T18:58:52.261Z,15.61
2023-03-17T19:01:20.092Z,15.17
2023-03-17T19:03:46.491Z,15.23
2023-03-17T19:06:15.184Z,15.42
2023-03-17T19:08:42.338Z,15.13
2023-03-17T19:11:10.233Z,15.36
2023-03-17T19:13:37.238Z,14.76
2023-03-17T19:16:04.924Z,15.17
2023-03-17T19:18:32.804Z,14.47
2023-03-17T19:20:59.676Z,14.82
2023-03-17T19:23:26.130Z,15.09
2023-03-17T19:25:52.703Z,14.83
2023-03-17T19:28:19.187Z,15.05
2023-03-17T19:30:45.894Z,15.11
2023-03-17T19:33:12.788Z,15.02
2023-03-17T19:35:41.309Z,15.28
2023-03-17T19:38:07.766Z,14.68
2023-03-17T19:40:34.214Z,14.95
2023-03-17T19:43:00.691Z,14.30
2023-03-17T19:45:27.137Z,14.85
2023-03-17T19:47:53.593Z,15.24
2023-03-17T19:50:19.952Z,14.55
2023-03-17T19:52:47.665Z,14.35
2023-03-17T19:55:14.312Z,14.36
2023-03-17T19:57:40.716Z,14.34
2023-03-17T20:00:08.761Z,14.63
2023-03-17T20:02:35.160Z,14.44
2023-03-17T20:05:01.543Z,14.64
2023-03-17T20:07:28.002Z,14.80
2023-03-17T20:09:55.713Z,14.77
2023-03-17T20:12:22.692Z,14.44
2023-03-17T20:14:49.293Z,14.67
2023-03-17T20:17:15.645Z,14.77
2023-03-17T20:19:42.032Z,13.97
2023-03-17T20:22:08.673Z,14.69
2023-03-17T20:24:35.491Z,14.06
2023-03-17T20:27:03.634Z,14.20
2023-03-17T20:29:30.062Z,13.29
2023-03-17T20:31:56.449Z,13.98
2023-03-17T20:34:23.346Z,13.38
2023-03-17T20:36:49.809Z,13.89
2023-03-17T20:39:16.194Z,13.94
2023-03-17T20:41:42.621Z,13.92
2023-03-17T20:44:10.340Z,14.18
2023-03-17T20:46:36.724Z,14.11
2023-03-17T20:49:03.175Z,14.18
2023-03-17T20:51:30.156Z,13.21
2023-03-17T20:53:56.529Z,13.83
2023-03-17T20:56:24.444Z,14.00
2023-03-17T20:58:51.413Z,13.85
2023-03-17T21:01:21.196Z,13.20
2023-03-17T21:03:48.387Z,13.41
2023-03-17T21:06:14.869Z,13.74
2023-03-17T21:08:41.239Z,14.26
2023-03-17T21:11:08.945Z,14.00
2023-03-17T21:13:36.060Z,13.02
2023-03-17T21:16:02.749Z,13.37
2023-03-17T21:18:30.540Z,12.92
2023-03-17T21:20:56.951Z,12.67
2023-03-17T21:23:23.341Z,13.00
2023-03-17T21:25:53.736Z,13.25
2023-03-17T21:28:20.111Z,13.41
2023-03-17T21:30:46.458Z,13.00
2023-03-17T21:33:12.802Z,12.49
2023-03-17T21:35:40.595Z,12.88
2023-03-17T21:38:07.050Z,12.87
2023-03-17T21:40:33.863Z,12.82
2023-03-17T21:43:00.320Z,13.09
2023-03-17T21:45:26.802Z,13.44
2023-03-17T21:47:53.421Z,13.38
2023-03-17T21:50:20.745Z,13.12
2023-03-17T21:52:48.463Z,13.17
2023-03-17T21:55:14.877Z,13.36
2023-03-17T21:57:41.708Z,13.06
2023-03-17T22:00:09.537Z,13.20
2023-03-17T22:02:36.018Z,13.15
2023-03-17T22:05:02.780Z,13.18
2023-03-17T22:07:29.320Z,12.75
2023-03-17T22:09:57.193Z,13.09
2023-03-17T22:12:23.813Z,13.17
2023-03-17T22:14:50.982Z,13.29
2023-03-17T22:17:17.369Z,13.17
2023-03-17T22:19:43.754Z,13.37
2023-03-17T22:22:10.445Z,13.18
2023-03-17T22:24:36.931Z,13.42
2023-03-17T22:27:05.199Z,13.53
2023-03-17T22:29:31.588Z,13.55
2023-03-17T22:31:58.138Z,13.31
2023-03-17T22:34:24.674Z,13.34
2023-03-17T22:36:51.034Z,13.54
2023-03-17T22:39:17.658Z,13.64
2023-03-17T22:41:44.109Z,13.46
2023-03-17T22:44:12.182Z,13.48
2023-03-17T22:46:39.015Z,13.69
2023-03-17T22:49:11.464Z,13.70
2023-03-17T22:51:38.255Z,13.48
2023-03-17T22:54:04.705Z,13.60
2023-03-17T22:56:31.512Z,13.25
2023-03-17T22:58:57.854Z,13.29
2023-03-17T23:01:25.921Z,13.16
2023-03-17T23:03:53.095Z,13.51
2023-03-17T23:06:20.300Z,13.31
2023-03-17T23:08:46.835Z,13.42
2023-03-17T23:11:15.682Z,13.10
2023-03-17T23:13:42.017Z,13.08
2023-03-17T23:16:09.020Z,13.16
2023-03-17T23:18:36.733Z,12.87
2023-03-17T23:21:04.941Z,12.91
2023-03-17T23:23:31.344Z,13.01
2023-03-17T23:25:57.829Z,13.22
2023-03-17T23:28:24.345Z,12.79
2023-03-17T23:30:51.002Z,13.64
2023-03-17T23:33:17.943Z,13.67
2023-03-17T23:35:45.640Z,13.51
2023-03-17T23:38:12.035Z,13.82
2023-03-17T23:40:38.437Z,13.59
2023-03-17T23:43:04.916Z,13.80
2023-03-17T23:45:31.566Z,13.75
2023-03-17T23:47:57.944Z,13.73
2023-03-17T23:50:24.358Z,13.83
2023-03-17T23:52:52.028Z,14.28
2023-03-17T23:55:18.434Z,13.66
2023-03-17T23:57:45.166Z,13.54
